createdAt,value
2023-01-01T00:03:04.565Z,102868.97
2023-01-01T00:06:13.057Z,102867.41
2023-01-01T00:09:36.867Z,102870.25
2023-01-01T00:12:42.255Z,102877.69
2023-01-01T00:15:47.939Z,102870.53
2023-01-01T00:18:53.589Z,102871.41
2023-01-01T00:22:02.119Z,102870.91
2023-01-01T00:25:16.259Z,102862.19
2023-01-01T00:28:21.820Z,102859.00
2023-01-01T00:31:27.488Z,102865.63
2023-01-01T00:34:33.078Z,102859.81
2023-01-01T00:37:43.313Z,102858.16
2023-01-01T00:40:51.951Z,102857.16
2023-01-01T00:43:57.219Z,102856.56
2023-01-01T00:47:02.498Z,102854.25
2023-01-01T00:50:08.239Z,102854.81
2023-01-01T00:53:14.105Z,102858.03
2023-01-01T00:56:19.634Z,102848.88
2023-01-01T00:59:28.948Z,102848.88
2023-01-01T01:02:34.779Z,102839.56
2023-01-01T01:05:40.490Z,102850.94
2023-01-01T01:08:46.997Z,102852.69
2023-01-01T01:12:18.453Z,102855.22
2023-01-01T01:15:19.273Z,102850.22
2023-01-01T01:18:25.246Z,102855.84
2023-01-01T01:21:34.579Z,102863.03
2023-01-01T01:24:40.272Z,102859.38
2023-01-01T01:27:45.972Z,102855.44
2023-01-01T01:30:51.166Z,102858.25
2023-01-01T01:33:57.898Z,102855.59
2023-01-01T01:37:03.383Z,102856.59
2023-01-01T01:40:09.573Z,102857.56
2023-01-01T01:43:45.736Z,102845.06
2023-01-01T01:46:51.786Z,102845.78
2023-01-01T01:50:29.757Z,102845.81
2023-01-01T01:53:41.953Z,102844.78
2023-01-01T01:56:47.485Z,102844.41
2023-01-01T01:59:57.052Z,102842.28
2023-01-01T02:03:11.646Z,102837.44
2023-01-01T02:06:19.510Z,102837.63
2023-01-01T02:09:25.380Z,102838.59
2023-01-01T02:12:30.642Z,102848.31
2023-01-01T02:15:42.444Z,102843.16
2023-01-01T02:19:21.394Z,102837.28
2023-01-01T02:23:04.719Z,102824.47
2023-01-01T02:26:39.181Z,102822.59
2023-01-01T02:30:00.477Z,102817.47
2023-01-01T02:33:12.699Z,102818.28
2023-01-01T02:36:20.222Z,102813.66
2023-01-01T02:39:32.787Z,102821.16
2023-01-01T02:42:38.404Z,102816.84
2023-01-01T02:45:43.985Z,102820.84
2023-01-01T02:48:53.652Z,102829.94
2023-01-01T02:52:09.187Z,102823.16
2023-01-01T02:55:48.090Z,102815.81
2023-01-01T02:59:42.409Z,102826.63
2023-01-01T03:03:06.769Z,102828.66
2023-01-01T03:06:25.479Z,102827.84
2023-01-01T03:09:59.693Z,102832.63
2023-01-01T03:13:30.186Z,102834.81
2023-01-01T03:16:44.146Z,102836.34
2023-01-01T03:19:52.748Z,102834.16
2023-01-01T03:23:02.649Z,102815.53
2023-01-01T03:26:13.006Z,102817.63
2023-01-01T03:29:19.093Z,102817.88
2023-01-01T03:33:00.971Z,102817.41
2023-01-01T03:36:07.710Z,102806.41
2023-01-01T03:39:16.984Z,102802.72
2023-01-01T03:42:36.724Z,102805.19
2023-01-01T03:45:48.681Z,102797.06
2023-01-01T03:49:03.284Z,102794.72
2023-01-01T03:52:33.830Z,102802.06
2023-01-01T03:55:47.473Z,102801.09
2023-01-01T03:59:28.328Z,102802.09
2023-01-01T04:02:55.758Z,102791.81
2023-01-01T04:06:03.455Z,102794.41
2023-01-01T04:09:18.070Z,102786.72
2023-01-01T04:12:23.792Z,102786.72
2023-01-01T04:15:28.979Z,102791.56
2023-01-01T04:18:34.248Z,102774.41
2023-01-01T04:21:39.509Z,102785.31
2023-01-01T04:24:44.757Z,102785.75
2023-01-01T04:27:49.794Z,102788.91
2023-01-01T04:33:59.500Z,102784.22
2023-01-01T04:37:09.730Z,102790.41
2023-01-01T04:40:18.645Z,102788.88
2023-01-01T04:43:24.023Z,102798.91
2023-01-01T04:46:29.589Z,102811.06
2023-01-01T04:49:35.178Z,102802.38
2023-01-01T04:52:40.948Z,102793.59
2023-01-01T04:55:46.465Z,102794.34
2023-01-01T04:58:51.967Z,102795.13
2023-01-01T05:01:58.026Z,102801.75
2023-01-01T05:05:03.507Z,102807.06
2023-01-01T05:08:09.276Z,102808.44
2023-01-01T05:11:17.678Z,102815.06
2023-01-01T05:14:23.528Z,102817.41
2023-01-01T05:17:29.055Z,102813.75
2023-01-01T05:20:35.363Z,102814.81
2023-01-01T05:23:40.955Z,102815.63
2023-01-01T05:26:46.747Z,102824.47
2023-01-01T05:29:52.050Z,102822.31
2023-01-01T05:32:57.656Z,102822.91
2023-01-01T05:36:05.699Z,102816.78
2023-01-01T05:39:13.277Z,102818.44
2023-01-01T05:42:19.199Z,102815.94
2023-01-01T05:45:24.987Z,102809.31
2023-01-01T05:48:30.910Z,102806.47
2023-01-01T05:54:41.579Z,102807.94
2023-01-01T05:57:47.137Z,102807.44
2023-01-01T06:00:53.294Z,102816.44
2023-01-01T06:04:00.250Z,102807.91
2023-01-01T06:07:05.431Z,102809.78
2023-01-01T06:10:10.962Z,102807.63
2023-01-01T06:13:16.599Z,102805.75
2023-01-01T06:16:21.987Z,102804.91
2023-01-01T06:19:27.535Z,102802.81
2023-01-01T06:22:32.952Z,102802.63
2023-01-01T06:25:38.289Z,102804.69
2023-01-01T06:28:45.343Z,102806.13
2023-01-01T06:31:50.554Z,102811.28
2023-01-01T06:34:56.241Z,102815.06
2023-01-01T06:38:01.775Z,102809.97
2023-01-01T06:41:11.048Z,102805.59
2023-01-01T06:44:16.829Z,102808.78
2023-01-01T06:47:22.458Z,102812.47
2023-01-01T06:50:28.140Z,102815.94
2023-01-01T06:53:34.333Z,102809.81
2023-01-01T06:56:40.084Z,102822.47
2023-01-01T06:59:45.297Z,102820.25
2023-01-01T07:02:51.179Z,102828.97
2023-01-01T07:05:56.574Z,102828.47
2023-01-01T07:09:02.487Z,102833.63
2023-01-01T07:12:08.420Z,102834.13
2023-01-01T07:15:14.023Z,102833.78
2023-01-01T07:18:21.380Z,102827.06
2023-01-01T07:21:33.366Z,102825.69
2023-01-01T07:24:40.078Z,102826.22
2023-01-01T07:27:45.566Z,102833.50
2023-01-01T07:30:53.975Z,102831.97
2023-01-01T07:33:59.361Z,102829.38
2023-01-01T07:37:04.693Z,102825.19
2023-01-01T07:40:10.584Z,102831.69
2023-01-01T07:43:16.351Z,102834.47
2023-01-01T07:46:22.264Z,102834.63
2023-01-01T07:49:27.602Z,102839.56
2023-01-01T07:52:33.354Z,102835.19
2023-01-01T07:55:39.138Z,102841.06
2023-01-01T07:58:44.550Z,102843.38
2023-01-01T08:01:51.472Z,102840.38
2023-01-01T08:04:57.042Z,102844.19
2023-01-01T08:08:02.451Z,102854.72
2023-01-01T08:11:07.881Z,102857.56
2023-01-01T08:14:14.277Z,102855.25
2023-01-01T08:17:19.412Z,102852.69
2023-01-01T08:20:25.059Z,102848.69
2023-01-01T08:23:31.185Z,102855.03
2023-01-01T08:26:37.464Z,102846.91
2023-01-01T08:29:43.891Z,102855.97
2023-01-01T08:32:49.667Z,102855.34
2023-01-01T08:35:55.344Z,102851.78
2023-01-01T08:39:00.516Z,102850.94
2023-01-01T08:42:11.840Z,102839.81
2023-01-01T08:45:17.401Z,102856.03
2023-01-01T08:48:28.865Z,102855.69
2023-01-01T08:51:36.479Z,102856.09
2023-01-01T08:54:42.068Z,102860.56
2023-01-01T08:57:47.653Z,102869.06
2023-01-01T09:00:54.490Z,102857.38
2023-01-01T09:04:00.176Z,102851.44
2023-01-01T09:07:05.678Z,102856.91
2023-01-01T09:10:10.839Z,102864.28
2023-01-01T09:13:19.392Z,102876.72
2023-01-01T09:16:25.025Z,102876.56
2023-01-01T09:19:30.374Z,102865.03
2023-01-01T09:22:36.148Z,102860.31
2023-01-01T09:25:41.572Z,102859.66
2023-01-01T09:28:46.884Z,102862.69
2023-01-01T09:31:52.552Z,102867.31
2023-01-01T09:34:58.171Z,102857.38
2023-01-01T09:38:03.621Z,102861.94
2023-01-01T09:41:23.841Z,102865.66
2023-01-01T09:44:56.628Z,102865.78
2023-01-01T09:48:11.912Z,102855.78
2023-01-01T09:51:20.197Z,102859.53
2023-01-01T09:54:38.451Z,102849.16
2023-01-01T09:57:43.640Z,102846.13
2023-01-01T10:00:56.691Z,102853.69
2023-01-01T10:04:26.515Z,102849.31
2023-01-01T10:08:04.144Z,102845.47
2023-01-01T10:11:17.258Z,102839.75
2023-01-01T10:15:04.988Z,102834.53
2023-01-01T10:18:20.561Z,102837.38
2023-01-01T10:21:34.128Z,102835.16
2023-01-01T10:24:50.421Z,102828.41
2023-01-01T10:28:28.764Z,102829.47
2023-01-01T10:31:42.745Z,102813.22
2023-01-01T10:34:50.741Z,102808.34
2023-01-01T10:37:59.859Z,102804.56
2023-01-01T10:41:17.119Z,102803.81
2023-01-01T10:44:31.844Z,102804.09
2023-01-01T10:47:37.357Z,102793.41
2023-01-01T10:50:52.559Z,102797.69
2023-01-01T10:53:58.437Z,102798.84
2023-01-01T10:57:17.306Z,102790.31
2023-01-01T11:00:27.299Z,102783.78
2023-01-01T11:03:33.679Z,102788.56
2023-01-01T11:06:42.728Z,102774.94
2023-01-01T11:10:02.557Z,102772.28
2023-01-01T11:13:21.081Z,102777.06
2023-01-01T11:16:29.250Z,102775.53
2023-01-01T11:19:45.685Z,102775.41
2023-01-01T11:22:56.592Z,102762.06
2023-01-01T11:26:13.992Z,102760.59
2023-01-01T11:29:27.226Z,102760.22
2023-01-01T11:32:36.015Z,102744.84
2023-01-01T11:35:53.052Z,102749.22
2023-01-01T11:39:18.791Z,102747.72
2023-01-01T11:42:27.916Z,102745.78
2023-01-01T11:45:42.788Z,102737.66
2023-01-01T11:48:48.496Z,102743.47
2023-01-01T11:51:54.069Z,102739.44
2023-01-01T11:55:21.485Z,102732.78
2023-01-01T11:58:45.386Z,102736.22
2023-01-01T12:01:55.263Z,102735.75
2023-01-01T12:05:26.175Z,102734.47
2023-01-01T12:08:40.127Z,102732.00
2023-01-01T12:11:53.081Z,102722.50
2023-01-01T12:15:16.041Z,102719.81
2023-01-01T12:18:29.316Z,102719.84
2023-01-01T12:21:36.779Z,102719.28
2023-01-01T12:24:42.850Z,102719.28
2023-01-01T12:28:04.012Z,102720.84
2023-01-01T12:31:29.001Z,102716.25
2023-01-01T12:35:00.110Z,102715.13
2023-01-01T12:38:14.537Z,102713.28
2023-01-01T12:42:02.433Z,102712.56
2023-01-01T12:45:30.510Z,102702.34
2023-01-01T12:48:48.192Z,102691.22
2023-01-01T12:52:13.810Z,102703.34
2023-01-01T12:55:47.591Z,102702.16
2023-01-01T12:58:59.228Z,102703.25
2023-01-01T13:02:14.752Z,102706.56
2023-01-01T13:05:29.328Z,102704.75
2023-01-01T13:08:37.171Z,102698.28
2023-01-01T13:11:45.668Z,102692.44
2023-01-01T13:14:51.554Z,102675.56
2023-01-01T13:17:56.752Z,102695.59
2023-01-01T13:21:17.069Z,102691.66
2023-01-01T13:24:25.568Z,102685.94
2023-01-01T13:27:58.466Z,102689.19
2023-01-01T13:31:04.246Z,102688.06
2023-01-01T13:34:31.008Z,102690.47
2023-01-01T13:37:44.321Z,102687.06
2023-01-01T13:40:51.468Z,102689.91
2023-01-01T13:43:59.577Z,102685.94
2023-01-01T13:47:27.809Z,102692.94
2023-01-01T13:51:39.957Z,102682.25
2023-01-01T13:55:14.657Z,102676.91
2023-01-01T13:58:43.588Z,102683.72
2023-01-01T14:01:55.261Z,102680.53
2023-01-01T14:05:18.835Z,102696.28
2023-01-01T14:08:36.355Z,102690.94
2023-01-01T14:12:08.375Z,102702.34
2023-01-01T14:15:27.797Z,102693.50
2023-01-01T14:18:57.100Z,102700.59
2023-01-01T14:22:25.682Z,102703.81
2023-01-01T14:25:30.975Z,102701.53
2023-01-01T14:28:55.600Z,102694.78
2023-01-01T14:32:12.723Z,102708.94
2023-01-01T14:35:36.657Z,102704.06
2023-01-01T14:38:49.835Z,102709.97
2023-01-01T14:42:16.743Z,102719.47
2023-01-01T14:45:24.675Z,102711.09
2023-01-01T14:48:48.709Z,102710.81
2023-01-01T14:52:01.051Z,102706.22
2023-01-01T14:55:26.511Z,102712.38
2023-01-01T14:58:31.701Z,102719.19
2023-01-01T15:01:55.844Z,102714.22
2023-01-01T15:05:35.695Z,102708.22
2023-01-01T15:09:00.339Z,102710.88
2023-01-01T15:12:05.708Z,102720.28
2023-01-01T15:15:37.898Z,102718.34
2023-01-01T15:18:50.800Z,102721.47
2023-01-01T15:21:56.851Z,102713.84
2023-01-01T15:25:03.456Z,102715.31
2023-01-01T15:28:20.904Z,102713.66
2023-01-01T15:31:42.547Z,102712.28
2023-01-01T15:34:47.856Z,102723.22
2023-01-01T15:37:59.386Z,102712.19
2023-01-01T15:41:23.767Z,102711.47
2023-01-01T15:44:36.767Z,102710.91
2023-01-01T15:47:42.156Z,102722.84
2023-01-01T15:50:50.512Z,102719.09
2023-01-01T15:54:05.161Z,102726.47
2023-01-01T15:57:20.662Z,102734.09
2023-01-01T16:00:29.704Z,102731.81
2023-01-01T16:03:37.204Z,102730.88
2023-01-01T16:06:47.547Z,102734.38
2023-01-01T16:09:57.724Z,102731.34
2023-01-01T16:13:04.055Z,102733.00
2023-01-01T16:16:30.309Z,102727.47
2023-01-01T16:19:35.633Z,102728.84
2023-01-01T16:22:40.953Z,102728.13
2023-01-01T16:25:46.709Z,102739.06
2023-01-01T16:28:52.206Z,102744.69
2023-01-01T16:31:57.825Z,102739.06
2023-01-01T16:35:11.534Z,102743.56
2023-01-01T16:38:17.468Z,102740.53
2023-01-01T16:41:22.602Z,102743.19
2023-01-01T16:44:27.800Z,102741.91
2023-01-01T16:47:33.217Z,102747.63
2023-01-01T16:50:38.689Z,102749.19
2023-01-01T16:53:44.432Z,102750.03
2023-01-01T16:56:50.183Z,102752.59
2023-01-01T16:59:56.390Z,102755.09
2023-01-01T17:03:01.802Z,102749.91
2023-01-01T17:06:09.983Z,102752.59
2023-01-01T17:09:16.157Z,102753.88
2023-01-01T17:12:21.448Z,102760.38
2023-01-01T17:15:26.947Z,102756.38
2023-01-01T17:19:04.278Z,102754.88
2023-01-01T17:21:58.558Z,102763.44
2023-01-01T17:25:04.608Z,102764.00
2023-01-01T17:28:10.116Z,102761.97
2023-01-01T17:31:20.238Z,102764.47
2023-01-01T17:34:25.910Z,102773.19
2023-01-01T17:37:33.278Z,102765.66
2023-01-01T17:40:38.541Z,102761.50
2023-01-01T17:43:47.877Z,102761.41
2023-01-01T17:46:55.285Z,102758.56
2023-01-01T17:50:01.293Z,102766.56
2023-01-01T17:53:12.090Z,102762.72
2023-01-01T17:56:20.736Z,102769.41
2023-01-01T17:59:26.077Z,102760.38
2023-01-01T18:02:33.830Z,102772.44
2023-01-01T18:05:39.189Z,102760.13
2023-01-01T18:08:44.504Z,102766.94
2023-01-01T18:11:50.194Z,102766.75
2023-01-01T18:14:55.595Z,102776.06
2023-01-01T18:18:01.105Z,102767.03
2023-01-01T18:21:19.475Z,102778.72
2023-01-01T18:24:24.725Z,102775.38
2023-01-01T18:27:30.333Z,102775.03
2023-01-01T18:30:37.027Z,102782.75
2023-01-01T18:33:43.907Z,102779.91
2023-01-01T18:36:49.256Z,102793.31
2023-01-01T18:39:59.321Z,102788.66
2023-01-01T18:43:19.733Z,102783.31
2023-01-01T18:46:25.406Z,102782.47
2023-01-01T18:49:31.524Z,102781.94
2023-01-01T18:52:36.656Z,102782.19
2023-01-01T18:55:41.823Z,102791.47
2023-01-01T18:58:49.589Z,102793.13
2023-01-01T19:01:55.214Z,102790.00
2023-01-01T19:05:17.158Z,102795.81
2023-01-01T19:08:23.540Z,102793.78
2023-01-01T19:11:30.498Z,102786.78
2023-01-01T19:14:35.919Z,102795.44
2023-01-01T19:17:41.153Z,102795.81
2023-01-01T19:20:47.086Z,102799.13
2023-01-01T19:23:53.608Z,102795.16
2023-01-01T19:27:10.656Z,102794.63
2023-01-01T19:30:25.515Z,102789.72
2023-01-01T19:33:31.732Z,102794.03
2023-01-01T19:36:37.698Z,102793.63
2023-01-01T19:39:44.174Z,102797.81
2023-01-01T19:42:50.827Z,102798.31
2023-01-01T19:45:56.168Z,102809.78
2023-01-01T19:49:01.835Z,102802.63
2023-01-01T19:52:07.708Z,102805.84
2023-01-01T19:55:13.178Z,102806.00
2023-01-01T19:58:20.167Z,102806.66
2023-01-01T20:01:25.773Z,102805.19
2023-01-01T20:04:31.193Z,102815.22
2023-01-01T20:07:36.659Z,102812.53
2023-01-01T20:10:42.127Z,102805.19
2023-01-01T20:13:47.930Z,102809.75
2023-01-01T20:16:53.851Z,102809.88
2023-01-01T20:19:59.343Z,102816.38
2023-01-01T20:23:04.628Z,102825.22
2023-01-01T20:26:09.927Z,102819.16
2023-01-01T20:29:21.509Z,102825.22
2023-01-01T20:32:28.339Z,102829.19
2023-01-01T20:35:51.790Z,102822.84
2023-01-01T20:38:57.112Z,102815.00
2023-01-01T20:42:03.036Z,102818.41
2023-01-01T20:45:09.132Z,102826.56
2023-01-01T20:48:19.586Z,102819.94
2023-01-01T20:51:25.656Z,102822.44
2023-01-01T20:54:31.013Z,102830.44
2023-01-01T20:57:36.406Z,102834.59
2023-01-01T21:00:41.940Z,102832.47
2023-01-01T21:03:47.502Z,102835.13
2023-01-01T21:06:53.341Z,102826.28
2023-01-01T21:09:58.936Z,102830.50
2023-01-01T21:13:04.563Z,102830.63
2023-01-01T21:16:34.948Z,102827.94
2023-01-01T21:19:40.990Z,102828.59
2023-01-01T21:22:48.039Z,102824.75
2023-01-01T21:25:53.833Z,102828.97
2023-01-01T21:29:00.331Z,102824.53
2023-01-01T21:32:34.204Z,102834.38
2023-01-01T21:35:39.460Z,102834.28
2023-01-01T21:38:46.287Z,102824.63
2023-01-01T21:41:51.927Z,102824.63
2023-01-01T21:44:58.233Z,102830.97
2023-01-01T21:48:17.297Z,102834.28
2023-01-01T21:51:31.905Z,102829.38
2023-01-01T21:54:38.715Z,102841.38
2023-01-01T21:57:45.581Z,102833.16
2023-01-01T22:00:51.254Z,102834.47
2023-01-01T22:04:24.848Z,102828.47
2023-01-01T22:11:13.526Z,102834.13
2023-01-01T22:14:23.191Z,102831.09
2023-01-01T22:17:36.923Z,102829.31
2023-01-01T22:20:45.587Z,102831.63
2023-01-01T22:23:56.830Z,102837.13
2023-01-01T22:27:28.410Z,102839.78
2023-01-01T22:30:34.084Z,102842.66
2023-01-01T22:33:44.496Z,102840.16
2023-01-01T22:36:50.295Z,102843.13
2023-01-01T22:39:55.599Z,102837.81
2023-01-01T22:43:05.669Z,102830.97
2023-01-01T22:46:39.600Z,102834.91
2023-01-01T22:49:51.929Z,102829.13
2023-01-01T22:52:57.821Z,102821.31
2023-01-01T22:56:03.681Z,102828.69
2023-01-01T22:59:09.471Z,102822.63
2023-01-01T23:02:15.318Z,102823.47
2023-01-01T23:05:20.907Z,102809.94
2023-01-01T23:08:26.735Z,102814.91
2023-01-01T23:11:32.423Z,102812.53
2023-01-01T23:14:56.404Z,102812.78
2023-01-01T23:18:01.575Z,102811.78
2023-01-01T23:21:15.387Z,102803.47
2023-01-01T23:24:24.408Z,102810.06
2023-01-01T23:27:29.890Z,102805.31
2023-01-01T23:30:35.389Z,102793.81
2023-01-01T23:33:41.536Z,102796.03
2023-01-01T23:36:46.834Z,102794.19
2023-01-01T23:39:52.297Z,102793.00
2023-01-01T23:42:58.933Z,102786.66
2023-01-01T23:46:04.575Z,102789.50
2023-01-01T23:49:10.311Z,102788.03
2023-01-01T23:52:15.921Z,102789.03
2023-01-01T23:55:21.808Z,102790.97
2023-01-01T23:58:27.394Z,102792.47
